Time;durP1;ratioP1;P1;durP2;ratioP2;P2;SDS_P1;SDS_P2;PMS_P1;PMS_P2;Temp;Humidity;BMP_temperature;BMP_pressure;BME280_temperature;BME280_humidity;BME280_pressure;Samples;Min_cycle;Max_cycle;Signal;HPM_P1;HPM_P2
2022/08/14 01:24:15;;;;;;;2.08;1.92;;;17.90;99.90;;;;;;5145725;23;20045;-73
2022/08/14 01:26:42;;;;;;;2.58;1.98;;;17.90;99.90;;;;;;5013088;28;20018;-73
2022/08/14 01:29:08;;;;;;;2.00;1.90;;;17.80;99.90;;;;;;5013739;28;20475;-73
2022/08/14 01:31:45;;;;;;;2.67;1.60;;;17.80;99.90;;;;;;5013947;28;20109;-73
2022/08/14 01:34:12;;;;;;;3.30;1.90;;;17.70;99.90;;;;;;4995033;28;20035;-73
2022/08/14 01:36:38;;;;;;;2.70;2.28;;;17.60;99.90;;;;;;4995234;28;20057;-73
2022/08/14 01:39:16;;;;;;;2.80;2.28;;;17.60;99.90;;;;;;4994993;28;20064;-73
2022/08/14 01:41:52;;;;;;;2.95;2.00;;;17.70;99.90;;;;;;4994688;28;20025;-73
2022/08/14 01:44:18;;;;;;;2.45;1.85;;;17.60;99.90;;;;;;4994531;28;20030;-73
2022/08/14 01:46:45;;;;;;;2.80;2.55;;;17.50;99.90;;;;;;4994982;28;20034;-73
2022/08/14 01:49:14;;;;;;;2.90;2.20;;;17.40;99.90;;;;;;4993408;28;20030;-72
2022/08/14 01:51:43;;;;;;;2.40;2.10;;;17.30;99.90;;;;;;4994471;28;20360;-73
2022/08/14 01:54:20;;;;;;;3.38;2.10;;;17.20;99.90;;;;;;4994417;28;20072;-73
2022/08/14 01:56:46;;;;;;;2.10;1.90;;;17.20;99.90;;;;;;4995095;28;20019;-73
2022/08/14 01:59:14;;;;;;;1.80;1.70;;;17.10;99.90;;;;;;4994350;28;20027;-73
2022/08/14 02:01:42;;;;;;;2.65;2.10;;;17.00;99.90;;;;;;4994404;28;20019;-73
2022/08/14 02:04:08;;;;;;;3.22;2.50;;;16.90;99.90;;;;;;4994301;28;20041;-73
2022/08/14 02:06:36;;;;;;;2.50;2.20;;;16.80;99.90;;;;;;4994461;28;20027;-73
2022/08/14 02:09:04;;;;;;;4.18;1.90;;;16.80;99.90;;;;;;4994320;28;20026;-73
2022/08/14 02:11:33;;;;;;;2.95;2.35;;;16.80;99.90;;;;;;4991994;28;20050;-73
2022/08/14 02:14:05;;;;;;;8.25;2.60;;;16.80;99.90;;;;;;4993822;28;20088;-73
2022/08/14 02:16:35;;;;;;;2.65;2.30;;;16.70;99.90;;;;;;4992689;28;20054;-73
2022/08/14 02:19:06;;;;;;;3.22;2.40;;;16.70;99.90;;;;;;4993821;28;20068;-73
2022/08/14 02:21:32;;;;;;;4.78;2.88;;;16.60;99.90;;;;;;4994092;28;20531;-73
2022/08/14 03:23:34;;;;;;;3.47;2.33;;;15.30;99.90;;;;;;5518865;23;20068;-71
2022/08/14 03:26:02;;;;;;;5.00;2.50;;;15.20;99.90;;;;;;5017841;28;20018;-71
2022/08/14 03:28:29;;;;;;;2.95;2.58;;;15.10;99.90;;;;;;5012194;28;20025;-71
2022/08/14 03:30:56;;;;;;;5.50;2.55;;;15.00;99.90;;;;;;5012093;28;20018;-71
2022/08/14 03:33:22;;;;;;;3.00;2.58;;;15.00;99.90;;;;;;5002162;28;20057;-71
2022/08/14 03:35:48;;;;;;;3.13;2.60;;;15.00;99.90;;;;;;4992357;28;20526;-71
2022/08/14 03:38:15;;;;;;;4.00;2.85;;;14.90;99.90;;;;;;4991871;28;20024;-72
2022/08/14 03:40:43;;;;;;;6.18;2.90;;;14.90;99.90;;;;;;4991124;28;20026;-71
2022/08/14 03:43:09;;;;;;;2.97;2.67;;;14.80;99.90;;;;;;4992643;28;20053;-71
2022/08/14 03:45:38;;;;;;;3.17;2.72;;;14.80;99.90;;;;;;4992343;28;20027;-74
2022/08/14 03:48:18;;;;;;;3.95;2.90;;;14.80;99.90;;;;;;4992100;28;20029;-71
2022/08/14 03:50:46;;;;;;;5.40;2.65;;;14.80;99.90;;;;;;4992017;28;20018;-71
2022/08/14 03:53:13;;;;;;;3.45;2.58;;;14.80;99.90;;;;;;4991807;28;20030;-72
2022/08/14 03:55:42;;;;;;;6.50;2.97;;;14.80;99.90;;;;;;4992632;28;20101;-71
2022/08/14 03:58:09;;;;;;;5.03;2.60;;;14.70;99.90;;;;;;4992289;28;20037;-71
2022/08/14 04:00:37;;;;;;;3.97;2.38;;;14.70;99.90;;;;;;4991993;28;20014;-71
2022/08/14 04:03:04;;;;;;;3.00;2.42;;;14.50;99.90;;;;;;4996180;28;20026;-71
2022/08/14 04:05:31;;;;;;;2.58;2.38;;;14.50;99.90;;;;;;4992188;28;20487;-71
2022/08/14 04:07:57;;;;;;;3.10;2.80;;;14.50;99.90;;;;;;4991899;28;20506;-71
2022/08/14 04:10:23;;;;;;;4.60;2.90;;;14.50;99.90;;;;;;4991512;28;20536;-71
2022/08/14 04:12:49;;;;;;;6.15;2.90;;;14.40;99.90;;;;;;4991595;28;20057;-72
2022/08/14 04:15:20;;;;;;;5.38;2.80;;;14.50;99.90;;;;;;4991368;28;20061;-72
2022/08/14 04:17:46;;;;;;;3.50;2.60;;;14.50;99.90;;;;;;4991733;28;20034;-71
2022/08/14 04:20:12;;;;;;;3.13;2.80;;;14.60;99.90;;;;;;4991649;28;20019;-72
